createdAt,value
2022-10-26T00:01:16.596Z,53.60
2022-10-26T00:03:46.544Z,54.09
2022-10-26T00:06:19.067Z,54.19
2022-10-26T00:08:46.646Z,54.34
2022-10-26T00:11:14.414Z,55.26
2022-10-26T00:13:42.328Z,55.27
2022-10-26T00:16:12.103Z,55.71
2022-10-26T00:18:39.232Z,55.16
2022-10-26T00:21:07.922Z,55.13
2022-10-26T00:23:35.271Z,55.56
2022-10-26T00:26:02.704Z,55.40
2022-10-26T00:28:30.056Z,55.11
2022-10-26T00:31:05.706Z,55.47
2022-10-26T00:33:38.855Z,55.53
2022-10-26T00:36:06.465Z,56.17
2022-10-26T00:38:33.718Z,56.03
2022-10-26T00:41:01.304Z,56.01
2022-10-26T00:43:28.324Z,55.97
2022-10-26T00:45:57.530Z,56.17
2022-10-26T00:48:38.478Z,56.17
2022-10-26T00:51:35.501Z,55.89
2022-10-26T00:54:05.841Z,55.54
2022-10-26T00:56:34.888Z,55.44
2022-10-26T00:59:09.943Z,55.66
2022-10-26T01:01:41.218Z,54.83
2022-10-26T01:04:08.451Z,54.10
2022-10-26T01:06:38.238Z,54.20
2022-10-26T01:09:06.362Z,53.82
2022-10-26T01:11:33.859Z,54.07
2022-10-26T01:14:04.570Z,53.83
2022-10-26T01:16:46.435Z,53.09
2022-10-26T01:19:31.688Z,52.95
2022-10-26T01:22:11.449Z,53.15
2022-10-26T01:24:44.442Z,53.13
2022-10-26T01:27:38.690Z,53.27
2022-10-26T01:30:17.882Z,52.52
2022-10-26T01:33:22.645Z,52.97
2022-10-26T01:36:13.624Z,53.11
2022-10-26T01:38:50.961Z,53.50
2022-10-26T01:41:29.993Z,53.48
2022-10-26T01:44:05.178Z,53.07
2022-10-26T01:46:38.527Z,53.17
2022-10-26T01:49:18.267Z,53.23
2022-10-26T01:51:48.254Z,53.78
2022-10-26T01:54:15.520Z,53.46
2022-10-26T01:56:48.457Z,53.11
2022-10-26T01:59:18.623Z,53.32
2022-10-26T02:01:49.006Z,52.55
2022-10-26T02:04:42.355Z,50.15
2022-10-26T02:07:24.510Z,49.71
2022-10-26T02:10:04.759Z,49.53
2022-10-26T02:12:56.646Z,49.46
2022-10-26T02:15:38.802Z,49.99
2022-10-26T02:18:09.093Z,50.72
2022-10-26T02:20:47.546Z,50.52
2022-10-26T02:23:15.705Z,50.92
2022-10-26T02:25:48.181Z,50.89
2022-10-26T02:28:20.269Z,51.01
2022-10-26T02:30:51.046Z,51.11
2022-10-26T02:33:20.366Z,51.04
2022-10-26T02:35:51.173Z,51.17
2022-10-26T02:38:21.630Z,51.76
2022-10-26T02:40:51.647Z,52.15
2022-10-26T02:43:22.437Z,51.65
2022-10-26T02:45:58.009Z,51.10
2022-10-26T02:48:25.465Z,50.42
2022-10-26T02:51:19.425Z,50.35
2022-10-26T02:53:52.165Z,50.51
2022-10-26T02:56:25.394Z,50.93
2022-10-26T02:59:02.538Z,50.92
2022-10-26T03:01:31.414Z,50.93
2022-10-26T03:03:59.965Z,50.82
2022-10-26T03:06:27.636Z,50.85
2022-10-26T03:08:55.017Z,50.82
2022-10-26T03:11:22.281Z,51.10
2022-10-26T03:13:49.448Z,51.26
2022-10-26T03:16:16.688Z,51.30
2022-10-26T03:18:43.738Z,51.57
2022-10-26T03:21:10.878Z,51.44
2022-10-26T03:23:37.967Z,51.28
2022-10-26T03:26:05.277Z,51.67
2022-10-26T03:28:32.354Z,52.41
2022-10-26T03:30:59.611Z,52.35
2022-10-26T03:33:27.243Z,52.04
2022-10-26T03:35:56.994Z,50.89
2022-10-26T03:38:24.461Z,50.78
2022-10-26T03:40:54.643Z,50.82
2022-10-26T03:43:21.813Z,50.87
2022-10-26T03:45:48.843Z,50.82
2022-10-26T03:48:16.111Z,51.51
2022-10-26T03:50:44.969Z,51.52
2022-10-26T03:53:12.262Z,51.52
2022-10-26T03:55:39.420Z,51.53
2022-10-26T03:58:07.248Z,51.57
2022-10-26T04:00:34.390Z,51.76
2022-10-26T04:03:01.499Z,51.14
2022-10-26T04:05:30.513Z,51.10
2022-10-26T04:08:00.196Z,50.86
2022-10-26T04:10:27.961Z,50.47
2022-10-26T04:12:57.501Z,51.27
2022-10-26T04:15:25.179Z,51.11
2022-10-26T04:17:59.989Z,50.58
2022-10-26T04:20:28.234Z,50.46
2022-10-26T04:23:05.681Z,50.51
2022-10-26T04:25:33.926Z,49.68
2022-10-26T04:28:02.899Z,49.30
2022-10-26T04:30:30.486Z,49.33
2022-10-26T04:32:57.550Z,49.04
2022-10-26T04:35:25.040Z,49.71
2022-10-26T04:37:52.378Z,49.62
2022-10-26T04:40:20.663Z,49.83
2022-10-26T04:42:48.584Z,49.82
2022-10-26T04:45:17.137Z,49.93
2022-10-26T04:47:44.236Z,50.39
2022-10-26T04:50:12.746Z,50.22
2022-10-26T04:52:40.600Z,50.54
2022-10-26T04:55:08.329Z,50.40
2022-10-26T04:57:36.454Z,50.47
2022-10-26T05:00:05.542Z,50.68
2022-10-26T05:02:32.722Z,51.23
2022-10-26T05:05:00.089Z,50.60
2022-10-26T05:07:27.223Z,50.13
2022-10-26T05:09:54.580Z,50.15
2022-10-26T05:12:21.675Z,50.41
2022-10-26T05:14:48.886Z,49.78
2022-10-26T05:17:16.350Z,50.19
2022-10-26T05:19:43.493Z,50.00
2022-10-26T05:22:10.903Z,50.47
2022-10-26T05:24:38.095Z,50.46
2022-10-26T05:27:05.138Z,50.18
2022-10-26T05:29:32.231Z,50.45
2022-10-26T05:31:59.434Z,49.98
2022-10-26T05:34:26.514Z,48.96
2022-10-26T05:36:54.806Z,49.20
2022-10-26T05:39:22.477Z,48.48
2022-10-26T05:41:49.827Z,47.25
2022-10-26T05:44:16.903Z,46.78
2022-10-26T05:46:44.040Z,46.00
2022-10-26T05:49:11.312Z,44.96
2022-10-26T05:51:39.810Z,43.57
2022-10-26T05:54:08.362Z,42.34
2022-10-26T05:56:42.134Z,41.08
2022-10-26T05:59:15.299Z,40.17
2022-10-26T06:02:07.554Z,39.38
2022-10-26T06:04:48.189Z,39.62
2022-10-26T06:07:21.102Z,38.72
2022-10-26T06:09:49.423Z,38.31
2022-10-26T06:12:19.475Z,36.97
2022-10-26T06:14:47.576Z,36.86
2022-10-26T06:17:35.819Z,36.06
2022-10-26T06:20:30.324Z,35.08
2022-10-26T06:23:24.890Z,34.61
2022-10-26T06:25:54.853Z,33.97
2022-10-26T06:28:47.267Z,33.58
2022-10-26T06:31:18.489Z,32.87
2022-10-26T06:33:48.452Z,32.63
2022-10-26T06:36:27.655Z,33.18
2022-10-26T06:39:01.972Z,33.60
2022-10-26T06:41:32.695Z,33.47
2022-10-26T06:44:00.380Z,35.81
2022-10-26T06:46:46.363Z,38.68
2022-10-26T06:49:28.157Z,41.82
2022-10-26T06:52:01.879Z,42.20
2022-10-26T06:54:43.520Z,42.00
2022-10-26T06:57:13.175Z,41.55
2022-10-26T06:59:51.826Z,40.28
2022-10-26T07:02:19.920Z,38.46
2022-10-26T07:04:47.599Z,37.72
2022-10-26T07:07:18.657Z,37.45
2022-10-26T07:09:46.850Z,37.62
2022-10-26T07:12:14.061Z,38.07
2022-10-26T07:14:41.301Z,39.48
2022-10-26T07:17:09.579Z,40.57
2022-10-26T07:19:36.734Z,42.78
2022-10-26T07:22:04.210Z,41.57
2022-10-26T07:24:31.556Z,41.82
2022-10-26T07:26:59.192Z,43.69
2022-10-26T07:29:27.353Z,41.77
2022-10-26T07:34:26.590Z,43.73
2022-10-26T07:40:10.164Z,41.93
2022-10-26T07:42:37.629Z,43.80
2022-10-26T07:45:05.323Z,41.44
2022-10-26T07:47:32.426Z,41.79
2022-10-26T07:49:59.592Z,40.59
2022-10-26T07:52:26.616Z,40.18
2022-10-26T07:54:53.764Z,39.67
2022-10-26T07:57:20.846Z,39.82
2022-10-26T07:59:47.933Z,39.27
2022-10-26T08:02:15.207Z,38.90
2022-10-26T08:04:42.216Z,38.58
2022-10-26T08:07:09.363Z,39.80
2022-10-26T08:09:36.346Z,40.10
2022-10-26T08:12:03.439Z,39.31
2022-10-26T08:14:30.604Z,41.88
2022-10-26T08:16:57.740Z,39.08
2022-10-26T08:19:24.910Z,37.62
2022-10-26T08:21:52.684Z,40.84
2022-10-26T08:24:19.723Z,38.55
2022-10-26T08:26:46.867Z,39.72
2022-10-26T08:29:13.847Z,38.53
2022-10-26T08:31:41.063Z,37.80
2022-10-26T08:34:08.494Z,37.71
2022-10-26T08:36:35.648Z,38.40
2022-10-26T08:39:02.765Z,39.35
2022-10-26T08:41:43.426Z,39.13
2022-10-26T08:44:38.193Z,39.51
2022-10-26T08:47:05.407Z,38.60
2022-10-26T08:49:58.815Z,37.42
2022-10-26T08:53:02.388Z,38.65
2022-10-26T08:55:35.416Z,37.67
2022-10-26T08:58:08.748Z,39.38
2022-10-26T09:00:36.080Z,38.04
2022-10-26T09:03:14.342Z,39.60
2022-10-26T09:05:53.436Z,39.89
2022-10-26T09:08:36.947Z,38.91
2022-10-26T09:11:10.902Z,40.34
2022-10-26T09:13:54.145Z,39.78
2022-10-26T09:16:28.134Z,39.47
2022-10-26T09:19:26.561Z,42.30
2022-10-26T09:22:07.185Z,41.93
2022-10-26T09:24:40.001Z,38.65
2022-10-26T09:27:22.729Z,36.21
2022-10-26T09:29:52.159Z,33.40
2022-10-26T09:32:27.051Z,32.48
2022-10-26T09:34:59.640Z,32.86
2022-10-26T09:37:31.431Z,33.91
2022-10-26T09:40:08.742Z,35.00
2022-10-26T09:43:03.602Z,34.54
2022-10-26T09:45:36.211Z,35.09
2022-10-26T09:48:38.486Z,35.58
2022-10-26T09:51:05.763Z,34.56
2022-10-26T09:53:33.373Z,34.15
2022-10-26T09:56:10.411Z,35.30
2022-10-26T09:59:02.456Z,32.48
2022-10-26T10:01:30.437Z,34.39
2022-10-26T10:04:22.870Z,35.27
2022-10-26T10:06:52.606Z,35.68
2022-10-26T10:09:24.883Z,34.64
2022-10-26T10:12:03.340Z,34.19
2022-10-26T10:14:39.911Z,35.37
2022-10-26T10:19:49.466Z,35.11
2022-10-26T10:22:16.458Z,36.42
2022-10-26T10:24:55.096Z,36.85
2022-10-26T10:27:23.561Z,37.87
2022-10-26T10:29:53.183Z,38.09
2022-10-26T10:32:23.186Z,40.55
2022-10-26T10:34:58.947Z,42.19
2022-10-26T10:37:47.486Z,43.24
2022-10-26T10:40:26.896Z,44.80
2022-10-26T10:43:05.957Z,45.45
2022-10-26T10:45:35.203Z,46.49
2022-10-26T10:48:13.206Z,47.92
2022-10-26T10:50:53.376Z,48.20
2022-10-26T10:53:32.215Z,49.30
2022-10-26T10:56:11.413Z,47.58
2022-10-26T10:59:06.251Z,49.90
2022-10-26T11:01:40.003Z,50.26
2022-10-26T11:04:16.056Z,49.70
2022-10-26T11:06:45.464Z,47.94
2022-10-26T11:09:17.267Z,49.94
2022-10-26T11:11:54.382Z,48.10
2022-10-26T11:14:30.925Z,50.39
2022-10-26T11:17:20.302Z,52.28
2022-10-26T11:20:05.837Z,54.39
2022-10-26T11:22:47.008Z,54.62
2022-10-26T11:25:35.660Z,55.12
2022-10-26T11:28:26.045Z,52.73
2022-10-26T11:31:00.824Z,52.87
2022-10-26T11:33:48.799Z,52.15
2022-10-26T11:36:21.974Z,52.88
2022-10-26T11:39:06.543Z,54.47
2022-10-26T11:41:45.842Z,52.32
2022-10-26T11:44:23.067Z,50.22
2022-10-26T11:46:55.638Z,54.14
2022-10-26T11:49:38.494Z,51.50
2022-10-26T11:52:22.328Z,53.60
2022-10-26T11:55:04.972Z,54.55
2022-10-26T11:57:37.056Z,49.75
2022-10-26T12:00:11.458Z,55.88
2022-10-26T12:05:16.031Z,46.92
2022-10-26T12:07:56.280Z,47.83
2022-10-26T12:10:33.474Z,47.33
2022-10-26T12:13:22.935Z,43.50
2022-10-26T12:16:11.906Z,38.99
2022-10-26T12:19:00.523Z,36.93
2022-10-26T12:21:32.472Z,36.13
2022-10-26T12:24:22.043Z,33.61
2022-10-26T12:26:59.839Z,33.51
2022-10-26T12:29:48.086Z,42.43
2022-10-26T12:32:43.733Z,36.37
2022-10-26T12:35:40.426Z,38.23
2022-10-26T12:38:29.045Z,38.30
2022-10-26T12:41:04.574Z,38.68
2022-10-26T12:43:31.760Z,35.45
2022-10-26T12:46:14.296Z,34.80
2022-10-26T12:48:46.927Z,33.56
2022-10-26T12:51:22.971Z,33.72
2022-10-26T12:54:05.024Z,31.36
2022-10-26T12:56:59.540Z,30.23
2022-10-26T12:59:43.406Z,29.20
2022-10-26T13:02:31.813Z,29.87
2022-10-26T13:05:08.276Z,30.63
2022-10-26T13:07:38.116Z,30.75
2022-10-26T13:10:26.588Z,28.39
2022-10-26T13:12:58.890Z,27.37
2022-10-26T13:15:54.663Z,27.08
2022-10-26T13:18:22.751Z,27.42
2022-10-26T13:21:11.783Z,28.45
2022-10-26T13:23:41.529Z,28.65
2022-10-26T13:26:16.278Z,31.07
2022-10-26T13:28:54.237Z,30.07
2022-10-26T13:31:33.208Z,28.22
2022-10-26T13:34:31.880Z,26.87
2022-10-26T13:37:17.557Z,27.25
2022-10-26T13:39:47.551Z,28.83
2022-10-26T13:42:24.347Z,30.28
2022-10-26T13:45:10.346Z,30.68
2022-10-26T13:47:52.797Z,29.88
2022-10-26T13:50:27.558Z,32.93
2022-10-26T13:53:17.677Z,34.44
2022-10-26T13:55:59.331Z,36.27
2022-10-26T13:58:33.418Z,35.35
2022-10-26T14:01:15.680Z,36.21
2022-10-26T14:03:43.659Z,36.69
2022-10-26T14:06:13.633Z,34.09
2022-10-26T14:08:43.018Z,34.30
2022-10-26T14:11:23.415Z,35.85
2022-10-26T14:13:51.686Z,36.05
2022-10-26T14:16:21.072Z,41.77
2022-10-26T14:18:49.790Z,39.51
2022-10-26T14:21:21.106Z,36.90
2022-10-26T14:24:07.755Z,37.10
2022-10-26T14:26:42.340Z,35.12
2022-10-26T14:29:18.560Z,36.38
2022-10-26T14:31:45.796Z,35.57
2022-10-26T14:34:13.378Z,36.00
2022-10-26T14:36:42.917Z,35.73
2022-10-26T14:39:27.266Z,35.74
2022-10-26T14:41:55.619Z,36.19
2022-10-26T14:44:25.493Z,36.10
2022-10-26T14:46:52.958Z,36.19
2022-10-26T14:49:24.042Z,35.01
2022-10-26T14:51:57.977Z,34.18
2022-10-26T14:54:28.205Z,34.04
2022-10-26T14:56:56.407Z,34.49
2022-10-26T14:59:29.908Z,35.36
2022-10-26T15:02:19.855Z,34.53
2022-10-26T15:05:17.118Z,34.85
2022-10-26T15:07:45.855Z,35.00
2022-10-26T15:10:34.884Z,34.21
2022-10-26T15:13:20.568Z,33.84
2022-10-26T15:15:49.951Z,33.49
2022-10-26T15:18:23.530Z,33.33
2022-10-26T15:20:52.178Z,33.30
2022-10-26T15:23:21.517Z,32.93
2022-10-26T15:26:04.484Z,32.59
2022-10-26T15:28:49.842Z,32.51
2022-10-26T15:31:17.009Z,32.88
2022-10-26T15:33:53.239Z,33.11
2022-10-26T15:36:26.163Z,33.72
2022-10-26T15:38:54.001Z,33.72
2022-10-26T15:41:31.278Z,34.00
2022-10-26T15:44:06.334Z,34.27
2022-10-26T15:46:36.592Z,34.71
2022-10-26T15:49:06.680Z,34.49
2022-10-26T15:51:34.510Z,34.87
2022-10-26T15:54:05.664Z,34.96
2022-10-26T15:56:34.847Z,34.51
2022-10-26T15:59:02.496Z,34.38
2022-10-26T16:01:30.619Z,34.07
2022-10-26T16:03:57.917Z,34.24
2022-10-26T16:06:28.135Z,34.42
2022-10-26T16:09:01.822Z,34.31
2022-10-26T16:11:29.974Z,34.53
2022-10-26T16:13:59.691Z,34.57
2022-10-26T16:16:31.635Z,34.74
2022-10-26T16:19:18.318Z,34.68
2022-10-26T16:21:46.228Z,34.67
2022-10-26T16:24:13.425Z,35.02
2022-10-26T16:26:40.536Z,35.56
2022-10-26T16:29:07.714Z,35.45
2022-10-26T16:31:34.850Z,34.80
2022-10-26T16:34:04.206Z,35.33
2022-10-26T16:36:34.834Z,36.34
2022-10-26T16:41:34.903Z,36.69
2022-10-26T16:44:02.012Z,36.34
2022-10-26T16:46:29.250Z,36.45
2022-10-26T16:48:56.489Z,36.25
2022-10-26T16:51:26.872Z,36.53
2022-10-26T16:53:56.335Z,36.26
2022-10-26T16:56:25.735Z,36.19
2022-10-26T16:58:53.019Z,36.36
2022-10-26T17:01:22.552Z,36.14
2022-10-26T17:03:51.651Z,36.36
2022-10-26T17:06:19.588Z,36.74
2022-10-26T17:08:47.345Z,37.04
2022-10-26T17:11:18.074Z,37.39
2022-10-26T17:13:46.292Z,38.47
2022-10-26T17:16:17.486Z,39.03
2022-10-26T17:18:45.850Z,40.95
2022-10-26T17:21:14.650Z,46.92
2022-10-26T17:23:41.935Z,48.04
2022-10-26T17:26:11.703Z,47.46
2022-10-26T17:28:39.221Z,47.21
2022-10-26T17:31:08.561Z,47.20
2022-10-26T17:33:37.363Z,47.20
2022-10-26T17:36:06.232Z,46.00
2022-10-26T17:38:42.078Z,44.06
2022-10-26T17:41:15.291Z,42.23
2022-10-26T17:43:44.031Z,41.92
2022-10-26T17:46:13.646Z,41.74
2022-10-26T17:48:40.969Z,42.24
2022-10-26T17:51:12.813Z,43.37
2022-10-26T17:53:40.374Z,43.85
2022-10-26T17:56:13.307Z,44.43
2022-10-26T17:58:40.245Z,45.13
2022-10-26T18:01:12.881Z,44.93
2022-10-26T18:03:41.762Z,45.13
2022-10-26T18:06:09.116Z,45.71
2022-10-26T18:08:37.951Z,46.05
2022-10-26T18:11:06.993Z,46.57
2022-10-26T18:13:34.582Z,46.70
2022-10-26T18:16:31.387Z,47.05
2022-10-26T18:19:04.603Z,47.10
2022-10-26T18:21:34.200Z,47.28
2022-10-26T18:24:01.449Z,47.32
2022-10-26T18:26:32.146Z,46.99
2022-10-26T18:29:01.289Z,47.01
2022-10-26T18:31:30.028Z,47.13
2022-10-26T18:34:02.329Z,47.22
2022-10-26T18:36:30.333Z,47.88
2022-10-26T18:38:57.715Z,47.88
2022-10-26T18:41:26.382Z,47.93
2022-10-26T18:43:59.041Z,47.79
2022-10-26T18:46:31.432Z,48.23
2022-10-26T18:49:01.079Z,48.49
2022-10-26T18:51:34.091Z,48.54
2022-10-26T18:54:01.637Z,48.85
2022-10-26T18:56:28.944Z,49.50
2022-10-26T18:58:59.547Z,49.54
2022-10-26T19:01:29.412Z,50.04
2022-10-26T19:03:59.718Z,50.96
2022-10-26T19:06:29.866Z,50.92
2022-10-26T19:08:57.934Z,51.50
2022-10-26T19:11:27.716Z,53.23
2022-10-26T19:13:55.322Z,56.78
2022-10-26T19:16:45.522Z,56.58
2022-10-26T19:19:12.462Z,56.86
2022-10-26T19:21:39.631Z,57.31
2022-10-26T19:24:12.610Z,57.29
2022-10-26T19:26:43.129Z,58.62
2022-10-26T19:29:16.580Z,58.97
2022-10-26T19:31:45.923Z,58.34
2022-10-26T19:34:13.961Z,57.79
2022-10-26T19:36:45.120Z,57.61
2022-10-26T19:39:14.563Z,57.37
2022-10-26T19:41:41.951Z,56.68
2022-10-26T19:44:11.200Z,56.09
2022-10-26T19:46:39.704Z,55.63
2022-10-26T19:49:07.464Z,54.64
2022-10-26T19:51:34.823Z,53.20
2022-10-26T19:54:06.204Z,53.12
2022-10-26T19:56:35.434Z,53.26
2022-10-26T19:59:03.361Z,53.10
2022-10-26T20:01:30.591Z,52.66
2022-10-26T20:03:58.116Z,52.77
2022-10-26T20:06:25.166Z,52.34
2022-10-26T20:08:52.896Z,52.41
2022-10-26T20:11:20.643Z,52.42
2022-10-26T20:13:48.767Z,52.67
2022-10-26T20:16:17.863Z,52.41
2022-10-26T20:18:49.037Z,52.04
2022-10-26T20:21:17.773Z,51.80
2022-10-26T20:23:45.348Z,51.52
2022-10-26T20:26:20.151Z,51.05
2022-10-26T20:28:51.269Z,51.53
2022-10-26T20:31:19.657Z,50.79
2022-10-26T20:33:50.755Z,50.55
2022-10-26T20:36:17.983Z,50.86
2022-10-26T20:38:45.294Z,51.20
2022-10-26T20:41:13.254Z,51.46
2022-10-26T20:43:41.239Z,51.11
2022-10-26T20:46:37.910Z,51.23
2022-10-26T20:49:05.361Z,51.52
2022-10-26T20:52:19.316Z,51.63
2022-10-26T20:54:52.971Z,51.51
2022-10-26T20:57:28.494Z,51.68
2022-10-26T21:00:04.261Z,51.59
2022-10-26T21:02:31.975Z,51.67
2022-10-26T21:04:59.061Z,51.34
2022-10-26T21:07:26.210Z,50.84
2022-10-26T21:09:53.400Z,50.58
2022-10-26T21:12:20.589Z,50.90
2022-10-26T21:14:47.738Z,50.69
2022-10-26T21:17:14.815Z,50.49
2022-10-26T21:19:42.131Z,50.39
2022-10-26T21:22:09.411Z,50.36
2022-10-26T21:27:08.547Z,51.94
2022-10-26T21:29:35.699Z,55.16
2022-10-26T21:32:02.946Z,55.60
2022-10-26T21:34:29.983Z,55.65
2022-10-26T21:36:58.374Z,55.80
2022-10-26T21:39:25.427Z,55.16
2022-10-26T21:41:52.974Z,54.60
2022-10-26T21:44:38.916Z,52.79
2022-10-26T21:47:07.177Z,50.83
2022-10-26T21:49:34.211Z,50.39
2022-10-26T21:52:01.435Z,50.92
2022-10-26T21:54:28.682Z,51.23
2022-10-26T21:56:55.747Z,50.63
2022-10-26T21:59:22.927Z,50.59
2022-10-26T22:01:50.154Z,50.61
2022-10-26T22:04:17.379Z,50.90
2022-10-26T22:06:44.502Z,50.84
2022-10-26T22:09:11.758Z,51.11
2022-10-26T22:11:38.869Z,51.05
2022-10-26T22:14:06.196Z,50.58
2022-10-26T22:16:33.728Z,50.23
2022-10-26T22:19:06.671Z,49.51
2022-10-26T22:21:39.549Z,49.11
2022-10-26T22:24:07.641Z,49.14
2022-10-26T22:26:36.753Z,48.80
2022-10-26T22:29:05.032Z,48.64
2022-10-26T22:31:34.858Z,48.69
2022-10-26T22:34:07.716Z,48.68
2022-10-26T22:36:35.877Z,48.79
2022-10-26T22:39:03.498Z,48.70
2022-10-26T22:41:31.281Z,48.49
2022-10-26T22:43:58.414Z,48.97
2022-10-26T22:46:28.223Z,48.83
2022-10-26T22:48:57.209Z,48.48
2022-10-26T22:51:25.836Z,48.35
2022-10-26T22:53:54.768Z,47.73
2022-10-26T22:56:23.621Z,47.54
2022-10-26T22:58:54.160Z,47.09
2022-10-26T23:01:24.197Z,46.64
2022-10-26T23:03:53.030Z,45.84
2022-10-26T23:06:20.634Z,45.43
2022-10-26T23:08:47.948Z,44.89
2022-10-26T23:11:18.115Z,45.81
2022-10-26T23:13:45.370Z,46.75
2022-10-26T23:16:20.678Z,46.99
2022-10-26T23:18:48.519Z,47.68
2022-10-26T23:21:17.325Z,49.55
2022-10-26T23:23:44.870Z,50.02
2022-10-26T23:26:14.953Z,50.66
2022-10-26T23:28:43.726Z,49.66
2022-10-26T23:31:23.436Z,49.33
2022-10-26T23:33:51.624Z,47.56
2022-10-26T23:36:19.159Z,46.81
2022-10-26T23:38:46.765Z,47.14
2022-10-26T23:41:14.287Z,47.56
2022-10-26T23:43:41.468Z,47.79
2022-10-26T23:46:08.861Z,47.97
2022-10-26T23:48:36.015Z,48.41
2022-10-26T23:51:03.027Z,48.09
2022-10-26T23:53:30.164Z,48.02
2022-10-26T23:55:57.102Z,48.32
2022-10-26T23:58:24.263Z,48.46
